createdAt,value
2019-01-18T00:00:26.535Z,5.27
2019-01-18T00:02:55.081Z,4.27
2019-01-18T00:05:23.618Z,4.90
2019-01-18T00:07:52.213Z,4.67
2019-01-18T00:10:20.813Z,4.47
2019-01-18T00:12:49.373Z,4.77
2019-01-18T00:15:18.157Z,4.50
2019-01-18T00:17:46.704Z,5.00
2019-01-18T00:20:15.267Z,4.63
2019-01-18T00:22:43.831Z,4.43
2019-01-18T00:25:12.379Z,4.40
2019-01-18T00:27:40.939Z,4.63
2019-01-18T00:30:09.589Z,5.43
2019-01-18T00:32:38.170Z,4.07
2019-01-18T00:35:06.741Z,4.57
2019-01-18T00:37:35.373Z,4.67
2019-01-18T00:40:04.266Z,4.77
2019-01-18T00:42:32.820Z,4.70
2019-01-18T00:45:01.394Z,4.37
2019-01-18T00:47:29.942Z,4.33
2019-01-18T00:49:58.485Z,4.07
2019-01-18T00:52:27.040Z,4.30
2019-01-18T00:54:55.596Z,5.07
2019-01-18T00:57:24.143Z,3.93
2019-01-18T00:59:52.705Z,5.97
2019-01-18T01:02:21.249Z,5.40
2019-01-18T01:04:49.809Z,4.67
2019-01-18T01:07:18.385Z,4.40
2019-01-18T01:09:46.966Z,5.03
2019-01-18T01:12:17.273Z,4.73
2019-01-18T01:14:45.828Z,5.30
2019-01-18T01:17:14.379Z,4.77
2019-01-18T01:19:42.938Z,5.47
2019-01-18T01:22:11.645Z,5.30
2019-01-18T01:24:40.195Z,4.10
2019-01-18T01:27:08.733Z,4.70
2019-01-18T01:29:42.919Z,4.43
2019-01-18T01:32:07.702Z,4.20
2019-01-18T01:34:36.268Z,4.77
2019-01-18T01:37:04.843Z,4.80
2019-01-18T01:39:33.383Z,4.80
2019-01-18T01:42:01.946Z,4.50
2019-01-18T01:44:30.550Z,4.93
2019-01-18T01:46:59.169Z,4.90
2019-01-18T01:49:27.715Z,4.33
2019-01-18T01:51:56.282Z,4.17
2019-01-18T01:54:24.838Z,4.50
2019-01-18T01:56:53.370Z,4.90
2019-01-18T01:59:21.941Z,4.40
2019-01-18T02:01:50.477Z,4.87
2019-01-18T02:04:19.040Z,4.90
2019-01-18T02:06:47.613Z,4.40
2019-01-18T02:09:16.563Z,4.83
2019-01-18T02:11:45.233Z,4.80
2019-01-18T02:14:13.841Z,4.17
2019-01-18T02:16:42.390Z,4.20
2019-01-18T02:19:10.964Z,4.60
2019-01-18T02:21:39.514Z,4.73
2019-01-18T02:24:08.058Z,4.50
2019-01-18T02:26:36.634Z,4.10
2019-01-18T02:29:05.183Z,4.70
2019-01-18T02:31:33.752Z,4.93
2019-01-18T02:34:02.337Z,4.70
2019-01-18T02:36:30.874Z,4.40
2019-01-18T02:38:59.423Z,5.17
2019-01-18T02:41:27.998Z,4.43
2019-01-18T02:43:56.552Z,4.43
2019-01-18T02:46:25.127Z,4.97
2019-01-18T02:48:53.691Z,4.30
2019-01-18T02:51:22.242Z,5.07
2019-01-18T02:53:50.783Z,4.40
2019-01-18T02:56:19.357Z,4.47
2019-01-18T02:58:47.896Z,4.53
2019-01-18T03:01:16.454Z,4.67
2019-01-18T03:03:45.007Z,4.83
2019-01-18T03:06:13.555Z,5.13
2019-01-18T03:08:42.122Z,4.73
2019-01-18T03:11:10.674Z,5.30
2019-01-18T03:13:39.242Z,4.87
2019-01-18T03:16:07.814Z,4.87
2019-01-18T03:18:36.351Z,4.30
2019-01-18T03:21:04.898Z,4.27
2019-01-18T03:23:33.482Z,4.70
2019-01-18T03:26:02.033Z,4.30
2019-01-18T03:28:30.579Z,4.60
2019-01-18T03:30:59.169Z,4.63
2019-01-18T03:33:27.879Z,4.87
2019-01-18T03:35:56.423Z,5.10
2019-01-18T03:38:25.002Z,4.70
2019-01-18T03:40:53.542Z,4.83
2019-01-18T03:43:22.085Z,5.00
2019-01-18T03:45:50.652Z,4.87
2019-01-18T03:48:19.199Z,4.77
2019-01-18T03:50:47.746Z,4.57
2019-01-18T03:53:17.875Z,5.23
2019-01-18T03:55:46.422Z,4.80
2019-01-18T03:58:14.969Z,4.33
2019-01-18T04:00:43.554Z,4.60
2019-01-18T04:03:12.090Z,5.53
2019-01-18T04:05:40.629Z,5.10
2019-01-18T04:08:09.202Z,5.43
2019-01-18T04:10:37.757Z,4.47
2019-01-18T04:13:06.336Z,4.70
2019-01-18T04:15:34.923Z,5.13
2019-01-18T04:18:03.474Z,4.70
2019-01-18T04:20:32.056Z,4.90
2019-01-18T04:23:00.637Z,4.97
2019-01-18T04:25:30.939Z,5.40
2019-01-18T04:27:59.498Z,4.47
2019-01-18T04:30:33.398Z,4.87
2019-01-18T04:32:58.339Z,4.50
2019-01-18T04:35:26.883Z,4.60
2019-01-18T04:37:55.472Z,5.37
2019-01-18T04:40:24.734Z,5.10
2019-01-18T04:42:53.283Z,4.83
2019-01-18T04:45:22.160Z,4.33
2019-01-18T04:47:50.901Z,5.40
2019-01-18T04:50:20.453Z,4.77
2019-01-18T04:52:49.065Z,4.93
2019-01-18T04:55:18.051Z,4.43
2019-01-18T04:57:46.617Z,5.00
2019-01-18T05:00:16.525Z,4.40
2019-01-18T05:02:45.066Z,4.70
2019-01-18T05:05:13.627Z,4.47
2019-01-18T05:07:42.194Z,4.77
2019-01-18T05:10:11.351Z,4.67
2019-01-18T05:12:39.945Z,4.73
2019-01-18T05:15:09.702Z,4.40
2019-01-18T05:17:38.254Z,5.00
2019-01-18T05:20:06.920Z,5.00
2019-01-18T05:22:35.481Z,4.90
2019-01-18T05:25:04.235Z,5.00
2019-01-18T05:27:32.854Z,4.87
2019-01-18T05:30:01.425Z,5.00
2019-01-18T05:32:30.103Z,5.50
2019-01-18T05:34:58.654Z,5.87
2019-01-18T05:37:27.226Z,5.13
2019-01-18T05:39:55.793Z,5.50
2019-01-18T05:42:24.358Z,5.80
2019-01-18T05:44:52.926Z,5.20
2019-01-18T05:47:21.469Z,5.80
2019-01-18T05:49:50.022Z,6.10
2019-01-18T05:52:18.602Z,6.43
2019-01-18T05:54:47.160Z,5.93
2019-01-18T05:57:15.701Z,6.00
2019-01-18T05:59:44.296Z,5.77
2019-01-18T06:02:12.894Z,5.90
2019-01-18T06:04:42.745Z,5.47
2019-01-18T06:07:11.334Z,6.27
2019-01-18T06:09:39.874Z,6.87
2019-01-18T06:12:08.417Z,6.43
2019-01-18T06:14:37.006Z,6.60
2019-01-18T06:17:05.667Z,5.90
2019-01-18T06:19:34.214Z,6.67
2019-01-18T06:22:02.802Z,5.97
2019-01-18T06:24:31.354Z,6.83
2019-01-18T06:26:59.922Z,6.93
2019-01-18T06:29:28.568Z,6.13
2019-01-18T06:31:57.124Z,5.83
2019-01-18T06:34:25.665Z,6.03
2019-01-18T06:36:54.243Z,6.53
2019-01-18T06:39:22.830Z,8.90
2019-01-18T06:41:54.710Z,7.40
2019-01-18T06:44:23.550Z,6.43
2019-01-18T06:46:52.609Z,7.63
2019-01-18T06:49:21.177Z,7.67
2019-01-18T06:51:49.761Z,7.43
2019-01-18T06:54:18.318Z,7.53
2019-01-18T06:56:46.860Z,7.63
2019-01-18T06:59:15.423Z,7.47
2019-01-18T07:01:44.098Z,7.77
2019-01-18T07:04:12.674Z,8.10
2019-01-18T07:06:41.326Z,8.73
2019-01-18T07:09:09.874Z,8.87
2019-01-18T07:11:38.430Z,8.73
2019-01-18T07:14:06.994Z,8.60
2019-01-18T07:16:35.533Z,8.20
2019-01-18T07:19:04.083Z,8.37
2019-01-18T07:21:32.660Z,8.50
2019-01-18T07:24:01.203Z,8.23
2019-01-18T07:26:29.741Z,7.80
2019-01-18T07:28:58.325Z,8.50
2019-01-18T07:31:26.874Z,8.50
2019-01-18T07:33:55.407Z,9.10
2019-01-18T07:36:23.908Z,8.67
2019-01-18T07:38:52.454Z,7.97
2019-01-18T07:41:21.034Z,7.73
2019-01-18T07:43:49.667Z,7.77
2019-01-18T07:46:19.401Z,8.13
2019-01-18T07:48:48.037Z,7.43
2019-01-18T07:51:16.601Z,6.90
2019-01-18T07:53:45.142Z,6.70
2019-01-18T07:56:13.699Z,7.07
2019-01-18T07:58:42.261Z,6.93
2019-01-18T08:01:10.811Z,7.10
2019-01-18T08:03:39.377Z,5.87
2019-01-18T08:06:07.935Z,6.90
2019-01-18T08:08:36.475Z,6.00
2019-01-18T08:11:05.024Z,5.63
2019-01-18T08:13:33.581Z,5.93
2019-01-18T08:16:02.125Z,6.33
2019-01-18T08:18:30.693Z,5.70
2019-01-18T08:20:59.230Z,6.27
2019-01-18T08:23:27.793Z,6.07
2019-01-18T08:25:56.425Z,6.23
2019-01-18T08:28:24.966Z,5.53
2019-01-18T08:30:53.530Z,5.67
2019-01-18T08:33:22.093Z,7.23
2019-01-18T08:35:50.654Z,6.63
2019-01-18T08:38:19.306Z,7.60
2019-01-18T08:40:47.894Z,5.70
2019-01-18T08:43:16.953Z,6.30
2019-01-18T08:45:50.603Z,5.83
2019-01-18T08:48:19.234Z,6.83
2019-01-18T08:50:47.782Z,6.40
2019-01-18T08:53:16.359Z,6.47
2019-01-18T08:55:44.935Z,7.47
2019-01-18T08:58:13.474Z,7.63
2019-01-18T09:00:42.041Z,7.30
2019-01-18T09:03:10.584Z,8.17
2019-01-18T09:05:39.127Z,7.40
2019-01-18T09:08:07.699Z,7.27
2019-01-18T09:10:36.282Z,7.03
2019-01-18T09:13:04.821Z,7.60
2019-01-18T09:15:33.513Z,6.83
2019-01-18T09:18:02.075Z,8.07
2019-01-18T09:20:30.638Z,7.67
2019-01-18T09:22:59.230Z,7.73
2019-01-18T09:25:29.349Z,7.50
2019-01-18T09:27:57.887Z,8.40
2019-01-18T09:30:27.510Z,8.23
2019-01-18T09:32:56.214Z,8.63
2019-01-18T09:35:25.030Z,8.43
2019-01-18T09:37:53.907Z,9.23
2019-01-18T09:40:23.609Z,8.87
2019-01-18T09:42:52.216Z,10.17
2019-01-18T09:45:20.827Z,10.23
2019-01-18T09:47:49.379Z,9.63
2019-01-18T09:50:18.987Z,10.17
2019-01-18T09:52:47.589Z,10.13
2019-01-18T09:55:16.153Z,10.40
2019-01-18T09:57:44.698Z,10.27
2019-01-18T10:00:15.102Z,10.27
2019-01-18T10:02:43.653Z,11.03
2019-01-18T10:05:12.234Z,11.07
2019-01-18T10:07:40.870Z,11.67
2019-01-18T10:10:11.094Z,9.20
2019-01-18T10:12:39.647Z,10.97
2019-01-18T10:15:09.627Z,9.73
2019-01-18T10:17:38.177Z,10.30
2019-01-18T10:20:07.941Z,8.90
2019-01-18T10:22:36.521Z,9.97
2019-01-18T10:25:05.298Z,9.40
2019-01-18T10:27:33.855Z,9.90
2019-01-18T10:30:02.430Z,10.00
2019-01-18T10:32:30.970Z,9.07
2019-01-18T10:34:59.511Z,10.07
2019-01-18T10:37:28.086Z,9.23
2019-01-18T10:39:56.666Z,8.90
2019-01-18T10:42:25.226Z,8.87
2019-01-18T10:44:53.853Z,9.37
2019-01-18T10:47:22.412Z,8.53
2019-01-18T10:49:50.999Z,7.73
2019-01-18T10:52:19.554Z,8.13
2019-01-18T10:54:48.118Z,7.77
2019-01-18T10:57:16.687Z,7.83
2019-01-18T10:59:45.298Z,8.20
2019-01-18T11:02:13.892Z,6.87
2019-01-18T11:04:42.459Z,6.43
2019-01-18T11:07:11.046Z,7.20
2019-01-18T11:09:39.605Z,6.67
2019-01-18T11:12:08.169Z,6.73
2019-01-18T11:14:36.866Z,6.57
2019-01-18T11:17:05.426Z,6.57
2019-01-18T11:19:33.990Z,6.37
2019-01-18T11:22:02.557Z,6.40
2019-01-18T11:24:31.161Z,6.80
2019-01-18T11:26:59.771Z,6.73
2019-01-18T11:29:28.338Z,7.57
2019-01-18T11:31:56.898Z,7.47
2019-01-18T11:34:25.461Z,6.40
2019-01-18T11:36:56.692Z,7.60
2019-01-18T11:39:24.351Z,7.23
2019-01-18T11:41:52.960Z,7.03
2019-01-18T11:44:21.510Z,7.17
2019-01-18T11:46:50.140Z,7.00
2019-01-18T11:49:18.713Z,6.87
2019-01-18T11:51:47.284Z,7.03
2019-01-18T11:54:15.864Z,6.83
2019-01-18T11:56:44.413Z,6.50
2019-01-18T11:59:12.979Z,6.67
2019-01-18T12:01:41.552Z,7.17
2019-01-18T12:04:10.105Z,6.97
2019-01-18T12:06:38.655Z,7.33
2019-01-18T12:09:07.460Z,6.07
2019-01-18T12:11:36.049Z,7.27
2019-01-18T12:14:04.634Z,7.07
2019-01-18T12:16:33.330Z,6.50
2019-01-18T12:19:01.879Z,6.70
2019-01-18T12:21:36.925Z,7.50
2019-01-18T12:24:00.763Z,7.17
2019-01-18T12:26:29.321Z,6.63
2019-01-18T12:28:57.894Z,6.97
2019-01-18T12:31:26.470Z,7.87
2019-01-18T12:33:55.026Z,8.07
2019-01-18T12:36:23.583Z,7.43
2019-01-18T12:39:11.347Z,8.17
2019-01-18T12:41:39.930Z,8.47
2019-01-18T12:44:08.491Z,8.70
2019-01-18T12:46:37.065Z,9.40
2019-01-18T12:49:07.158Z,9.03
2019-01-18T12:51:35.706Z,11.17
2019-01-18T12:54:04.290Z,10.27
2019-01-18T12:56:32.910Z,9.83
2019-01-18T12:59:01.460Z,10.17
2019-01-18T13:01:30.039Z,9.73
2019-01-18T13:03:58.595Z,9.60
2019-01-18T13:06:27.154Z,9.73
2019-01-18T13:08:55.783Z,10.80
2019-01-18T13:11:24.333Z,11.53
2019-01-18T13:13:52.880Z,11.07
2019-01-18T13:16:29.193Z,10.30
2019-01-18T13:18:58.882Z,10.10
2019-01-18T13:21:27.441Z,8.87
2019-01-18T13:23:56.025Z,9.90
2019-01-18T13:26:24.581Z,10.03
2019-01-18T13:28:53.141Z,9.90
2019-01-18T13:31:21.728Z,10.90
2019-01-18T13:33:50.289Z,9.53
2019-01-18T13:36:18.883Z,9.30
2019-01-18T13:38:47.451Z,9.87
2019-01-18T13:41:16.042Z,8.47
2019-01-18T13:43:44.605Z,9.67
2019-01-18T13:46:13.190Z,8.90
2019-01-18T13:48:41.751Z,8.27
2019-01-18T13:51:10.379Z,9.83
2019-01-18T13:53:38.953Z,9.17
2019-01-18T13:56:07.538Z,9.67
2019-01-18T13:58:36.131Z,9.43
2019-01-18T14:01:04.715Z,8.27
2019-01-18T14:03:33.314Z,9.77
2019-01-18T14:06:01.893Z,9.13
2019-01-18T14:08:30.450Z,9.93
2019-01-18T14:10:59.662Z,8.90
2019-01-18T14:13:28.209Z,8.23
2019-01-18T14:15:56.758Z,8.57
2019-01-18T14:18:25.332Z,9.37
2019-01-18T14:20:53.886Z,9.47
2019-01-18T14:23:22.447Z,8.27
2019-01-18T14:25:51.023Z,9.07
2019-01-18T14:28:19.599Z,7.73
2019-01-18T14:30:48.175Z,8.17
2019-01-18T14:33:16.755Z,8.47
2019-01-18T14:35:45.350Z,9.97
2019-01-18T14:38:13.914Z,9.10
2019-01-18T14:40:42.555Z,7.90
2019-01-18T14:43:11.111Z,9.30
2019-01-18T14:45:40.648Z,9.33
2019-01-18T14:48:09.224Z,9.67
2019-01-18T14:50:37.790Z,10.33
2019-01-18T14:53:06.374Z,9.93
2019-01-18T14:55:35.321Z,9.07
2019-01-18T14:58:05.130Z,8.77
2019-01-18T15:00:35.623Z,8.87
2019-01-18T15:03:04.621Z,9.60
2019-01-18T15:05:33.270Z,9.20
2019-01-18T15:08:01.820Z,9.30
2019-01-18T15:10:30.390Z,10.50
2019-01-18T15:13:06.446Z,9.30
2019-01-18T15:15:35.063Z,10.07
2019-01-18T15:18:03.681Z,9.47
2019-01-18T15:20:32.266Z,9.73
2019-01-18T15:23:00.886Z,11.50
2019-01-18T15:25:29.555Z,11.93
2019-01-18T15:27:58.143Z,12.27
2019-01-18T15:30:27.578Z,11.53
2019-01-18T15:32:56.162Z,11.30
2019-01-18T15:35:25.967Z,11.33
2019-01-18T15:37:54.586Z,11.43
2019-01-18T15:40:23.847Z,10.20
2019-01-18T15:42:52.482Z,10.70
2019-01-18T15:45:21.062Z,10.47
2019-01-18T15:47:49.613Z,10.37
2019-01-18T15:50:19.635Z,10.70
2019-01-18T15:52:48.231Z,11.27
2019-01-18T15:55:16.782Z,11.33
2019-01-18T15:57:45.391Z,10.20
2019-01-18T16:00:24.202Z,9.77
2019-01-18T16:02:52.871Z,11.03
2019-01-18T16:05:21.534Z,12.30
2019-01-18T16:07:50.154Z,12.63
2019-01-18T16:10:18.797Z,12.80
2019-01-18T16:12:47.397Z,12.47
2019-01-18T16:15:16.241Z,13.03
2019-01-18T16:17:45.213Z,13.00
2019-01-18T16:20:14.851Z,12.47
2019-01-18T16:22:43.600Z,13.47
2019-01-18T16:25:13.672Z,18.20
2019-01-18T16:27:42.295Z,19.83
2019-01-18T16:30:12.562Z,21.87
2019-01-18T16:32:41.222Z,18.40
2019-01-18T16:35:10.359Z,14.47
2019-01-18T16:37:39.010Z,16.30
2019-01-18T16:40:09.589Z,14.87
2019-01-18T16:42:38.415Z,15.60
2019-01-18T16:45:07.085Z,15.93
2019-01-18T16:47:35.775Z,15.53
2019-01-18T16:50:05.025Z,17.70
2019-01-18T16:52:33.608Z,16.53
2019-01-18T16:55:02.195Z,16.70
2019-01-18T16:57:32.042Z,15.40
2019-01-18T17:00:00.599Z,16.37
2019-01-18T17:02:29.266Z,14.73
2019-01-18T17:04:57.833Z,17.20
2019-01-18T17:07:26.406Z,15.87
2019-01-18T17:09:54.986Z,16.30
2019-01-18T17:12:23.602Z,15.50
2019-01-18T17:14:52.155Z,14.33
2019-01-18T17:17:20.711Z,15.00
2019-01-18T17:19:49.287Z,14.03
2019-01-18T17:22:17.853Z,15.40
2019-01-18T17:24:46.402Z,14.07
2019-01-18T17:27:14.978Z,17.27
2019-01-18T17:29:43.637Z,15.93
2019-01-18T17:32:12.179Z,16.70
2019-01-18T17:34:40.759Z,17.20
2019-01-18T17:37:11.030Z,17.53
2019-01-18T17:39:45.158Z,17.33
2019-01-18T17:42:38.871Z,16.43
2019-01-18T17:45:24.914Z,17.03
2019-01-18T17:48:02.055Z,17.33
2019-01-18T17:50:48.650Z,18.33
2019-01-18T17:53:24.537Z,18.17
2019-01-18T17:56:07.217Z,19.57
2019-01-18T17:58:53.468Z,19.90
2019-01-18T18:01:43.014Z,20.70
2019-01-18T18:04:45.785Z,23.63
2019-01-18T18:07:32.168Z,24.40
2019-01-18T18:10:08.437Z,22.90
2019-01-18T18:12:54.440Z,27.23
2019-01-18T18:15:51.246Z,27.53
2019-01-18T18:18:48.995Z,25.97
2019-01-18T18:21:29.621Z,26.53
2019-01-18T18:24:05.716Z,29.73
2019-01-18T18:26:47.616Z,28.97
2019-01-18T18:29:22.675Z,29.47
2019-01-18T18:32:12.966Z,29.10
2019-01-18T18:35:18.666Z,28.97
2019-01-18T18:38:21.201Z,29.47
2019-01-18T18:41:14.848Z,29.47
2019-01-18T18:43:50.028Z,30.10
2019-01-18T18:46:36.330Z,30.83
2019-01-18T18:49:26.067Z,29.60
2019-01-18T18:52:03.354Z,29.83
2019-01-18T18:54:45.983Z,27.83
2019-01-18T18:57:33.751Z,27.33
2019-01-18T19:00:06.043Z,28.70
2019-01-18T19:02:44.751Z,30.60
2019-01-18T19:05:30.715Z,28.27
2019-01-18T19:08:21.192Z,27.27
2019-01-18T19:11:26.614Z,30.00
2019-01-18T19:14:14.392Z,28.83
2019-01-18T19:16:55.366Z,28.87
2019-01-18T19:19:31.524Z,29.80
2019-01-18T19:22:17.684Z,30.17
2019-01-18T19:25:03.735Z,30.90
2019-01-18T19:28:06.434Z,30.10
2019-01-18T19:30:56.974Z,31.13
2019-01-18T19:33:32.456Z,29.97
2019-01-18T19:36:09.255Z,28.73
2019-01-18T19:38:51.294Z,28.20
2019-01-18T19:41:42.048Z,28.47
2019-01-18T19:44:21.182Z,26.83
2019-01-18T19:47:08.966Z,26.07
2019-01-18T19:49:44.381Z,27.17
2019-01-18T19:52:37.959Z,24.43
2019-01-18T19:55:37.314Z,24.17
2019-01-18T19:58:18.675Z,23.77
2019-01-18T20:01:02.309Z,24.63
2019-01-18T20:03:50.090Z,23.97
2019-01-18T20:06:40.421Z,24.30
2019-01-18T20:09:24.643Z,25.17
2019-01-18T20:12:15.213Z,26.23
2019-01-18T20:15:02.970Z,25.87
2019-01-18T20:17:43.326Z,26.83
2019-01-18T20:20:21.351Z,25.37
2019-01-18T20:23:03.238Z,26.17
2019-01-18T20:25:53.710Z,27.30
2019-01-18T20:28:59.643Z,25.97
2019-01-18T20:31:50.237Z,26.60
2019-01-18T20:34:50.054Z,28.07
2019-01-18T20:37:27.539Z,26.53
2019-01-18T20:40:18.055Z,27.37
2019-01-18T20:42:53.756Z,28.33
2019-01-18T20:45:33.481Z,27.50
2019-01-18T20:48:30.014Z,27.17
2019-01-18T20:51:02.374Z,28.90
2019-01-18T20:53:34.537Z,30.17
2019-01-18T20:56:20.685Z,28.60
2019-01-18T20:59:04.122Z,29.07
2019-01-18T21:01:50.245Z,29.50
2019-01-18T21:04:55.778Z,30.87
2019-01-18T21:07:43.538Z,29.43
2019-01-18T21:10:21.581Z,28.40
2019-01-18T21:13:02.832Z,29.53
2019-01-18T21:15:56.731Z,29.57
2019-01-18T21:18:47.206Z,30.23
2019-01-18T21:21:19.270Z,31.90
2019-01-18T21:24:05.731Z,32.93
2019-01-18T21:26:52.243Z,32.70
2019-01-18T21:29:27.618Z,33.40
2019-01-18T21:32:06.247Z,35.33
2019-01-18T21:35:05.978Z,39.50
2019-01-18T21:37:53.811Z,37.70
2019-01-18T21:40:46.581Z,40.77
2019-01-18T21:43:32.717Z,37.53
2019-01-18T21:46:14.619Z,37.67
2019-01-18T21:49:20.570Z,38.17
2019-01-18T21:52:26.329Z,40.27
2019-01-18T21:55:22.605Z,41.27
2019-01-18T21:57:55.677Z,40.17
2019-01-18T22:00:52.257Z,42.43
2019-01-18T22:03:42.019Z,42.17
2019-01-18T22:06:19.290Z,41.17
2019-01-18T22:09:15.834Z,40.40
2019-01-18T22:12:06.423Z,41.40
2019-01-18T22:14:52.783Z,41.83
2019-01-18T22:17:39.149Z,41.97
2019-01-18T22:20:19.256Z,40.03
2019-01-18T22:23:09.898Z,43.20
2019-01-18T22:25:44.743Z,39.43
2019-01-18T22:28:20.939Z,42.33
2019-01-18T22:31:08.730Z,42.47
2019-01-18T22:33:40.546Z,41.57
2019-01-18T22:36:27.586Z,42.60
2019-01-18T22:39:15.155Z,43.23
2019-01-18T22:41:53.702Z,40.50
2019-01-18T22:44:44.456Z,40.97
2019-01-18T22:47:21.302Z,43.27
2019-01-18T22:50:01.698Z,43.60
2019-01-18T22:53:01.337Z,42.93
2019-01-18T22:55:48.179Z,41.40
2019-01-18T22:58:38.871Z,42.23
2019-01-18T23:01:28.514Z,42.23
2019-01-18T23:04:12.834Z,44.87
2019-01-18T23:07:00.616Z,42.10
2019-01-18T23:09:57.499Z,40.73
2019-01-18T23:12:53.822Z,41.60
2019-01-18T23:15:44.160Z,40.20
2019-01-18T23:18:16.774Z,39.53
2019-01-18T23:21:01.190Z,37.60
2019-01-18T23:23:54.789Z,41.00
2019-01-18T23:26:42.550Z,40.67
2019-01-18T23:29:22.326Z,39.97
2019-01-18T23:32:10.086Z,38.63
2019-01-18T23:35:02.884Z,40.67
2019-01-18T23:37:34.237Z,37.47
2019-01-18T23:40:36.694Z,40.73
2019-01-18T23:43:24.447Z,38.80
2019-01-18T23:46:28.449Z,43.97
2019-01-18T23:49:19.097Z,40.93
2019-01-18T23:52:15.466Z,39.47
2019-01-18T23:55:01.451Z,36.30
2019-01-18T23:57:42.201Z,40.50
